الصفحة الرئيسية
METAR-TAF:

METAR-TAF

مطار :

Tôlanaro, مدغشقر

دائرة عرض: 25-02S, خط طول: 046-57E, ارتفاع: 8 متر

مراقبة الطقس الحالي

تاريخ ووقت الإصدار 36 دقيقة قبل الساعة 02:00UTC
رياح هادئة
درجة الحرارة 23°درجة مئوية
الرطوبة 89%
ضغط 1009 hPa
الرؤية 10 كم أو أكثر
غيوم قليلة على ارتفاع 1600 قدم
غيوم متفرقة على ارتفاع 3300 قدم

METAR: FMSD 010200Z 00000KT 9999 FEW016 SCT033 23/21 Q1009

زمن: 05:36 (02:36 UTC)

توقعات

تاريخ ووقت الإصدار 3ساعات و 36 دقيقة قبل الساعة 23:00UTC
التوقعات صالحة من01 الساعة 00 UTC إلى 01 الساعة 24 UTC
ريح 5 عقدة من الجنوب/الجنوب الشرقي
الرؤية 10 كم أو أكثر
غيوم قليلة على ارتفاع 1600 قدم
غيوم متفرقة على ارتفاع 3300 قدم
أصبح
من 01 الساعة 05 UTC إلى 01 الساعة 08 UTC
ريح 10 عقدة من الشرق

TAF: FMSD 302300Z 0100/0124 16005KT 9999 FEW016 SCT033 BECMG 0105/0108 08010KT

أرصاد الطقس والتوقعات من أكثر من 4000 مطار (تقارير الطقس للمطار METAR والتنبؤ بالطقس بالمطارTAF).

المحطات المتاحة هي النقط الصفراء والحمراء على الخريطة.

حرك المؤشر فوق النقطة لمعرفة اسم المحطة.

ثم انقر لمعرفة أرصاد وتوقعات الطقس.

لتغيير الخارطة: اضغط على الأزرار الخضراء مع رمز الصليب الأسود للتكبير. على الزر الأخضر مع شرطة للتصغير، أو على الأسهم الخضراء للخرائط المجاورة.


METAR-TAF: